Time;durP1;ratioP1;P1;durP2;ratioP2;P2;SDS_P1;SDS_P2;PMS_P1;PMS_P2;Temp;Humidity;BMP_temperature;BMP_pressure;BME280_temperature;BME280_humidity;BME280_pressure;Samples;Min_cycle;Max_cycle;Signal;HPM_P1;HPM_P2
2022/11/09 00:01:06;;;;;;;34.50;19.93;;;;;;;-141.28;100.00;51131.13;5116032;28;20974;-77
2022/11/09 00:03:33;;;;;;;41.10;24.27;;;;;;;-141.28;100.00;51154.69;5114180;28;20198;-75
2022/11/09 00:06:00;;;;;;;46.93;23.77;;;;;;;-141.28;100.00;51231.25;5114429;28;20227;-76
2022/11/09 00:08:29;;;;;;;40.47;24.00;;;;;;;-141.28;100.00;51256.78;5114405;28;20195;-77
2022/11/09 00:11:02;;;;;;;42.23;25.23;;;;;;;-141.28;100.00;51280.34;5114485;28;20221;-79
2022/11/09 00:13:29;;;;;;;47.13;25.67;;;;;;;-141.28;100.00;51299.97;5114131;28;20290;-76
2022/11/09 00:15:58;;;;;;;50.20;29.13;;;;;;;-141.28;100.00;51323.53;5113765;28;20203;-75
2022/11/09 00:18:25;;;;;;;50.23;29.47;;;;;;;-141.28;100.00;51331.38;5113896;28;20984;-75
2022/11/09 00:20:52;;;;;;;47.90;26.83;;;;;;;-141.28;100.00;51386.34;5113873;28;20459;-76
2022/11/09 00:23:19;;;;;;;45.83;27.40;;;;;;;-141.28;100.00;51380.47;5100977;28;20206;-76
2022/11/09 00:25:47;;;;;;;44.63;25.43;;;;;;;-141.28;100.00;51382.44;5113541;28;21018;-76
2022/11/09 00:28:14;;;;;;;44.23;25.57;;;;;;;-141.28;100.00;51390.28;5093880;28;20446;-77
2022/11/09 00:30:41;;;;;;;48.80;27.10;;;;;;;-141.28;100.00;51305.84;5107460;28;21269;-77
2022/11/09 00:33:09;;;;;;;46.47;25.57;;;;;;;-141.28;100.00;51415.81;5102830;28;20203;-76
2022/11/09 00:35:38;;;;;;;40.70;25.50;;;;;;;-141.28;100.00;51406.00;5113668;28;20238;-76
2022/11/09 00:38:05;;;;;;;45.73;26.37;;;;;;;-141.28;100.00;51441.31;5113574;28;20199;-76
2022/11/09 00:40:31;;;;;;;50.37;27.70;;;;;;;-141.28;100.00;51445.25;5113419;28;20632;-76
2022/11/09 00:43:00;;;;;;;47.63;25.97;;;;;;;-141.28;100.00;51457.03;5113630;28;20206;-78
2022/11/09 00:45:27;;;;;;;41.37;25.57;;;;;;;-141.28;100.00;51451.16;5113136;28;21029;-76
2022/11/09 00:47:54;;;;;;;43.07;25.60;;;;;;;-141.28;100.00;51478.63;5113590;28;20501;-79
2022/11/09 00:50:21;;;;;;;45.60;24.50;;;;;;;-141.28;100.00;51541.47;5113383;28;20842;-76
2022/11/09 00:52:48;;;;;;;44.50;26.00;;;;;;;-141.28;100.00;51539.50;5113988;28;20226;-78
2022/11/09 00:55:16;;;;;;;44.13;26.53;;;;;;;-141.28;100.00;51559.13;5113730;28;20249;-74
2022/11/09 00:57:42;;;;;;;43.30;25.50;;;;;;;-141.28;100.00;51543.44;5115770;28;20476;-76
2022/11/09 01:00:13;;;;;;;49.00;25.87;;;;;;;-141.28;100.00;51539.50;5113387;28;20510;-77
2022/11/09 01:02:41;;;;;;;43.53;24.63;;;;;;;-141.28;100.00;51543.44;5113276;28;20904;-75
2022/11/09 01:05:08;;;;;;;44.30;25.47;;;;;;;-141.28;100.00;51541.47;5108897;28;20477;-75
2022/11/09 01:07:36;;;;;;;50.73;26.70;;;;;;;-141.28;100.00;51510.06;5103867;28;20203;-78
2022/11/09 01:10:04;;;;;;;48.90;26.60;;;;;;;-141.28;100.00;51553.25;5108078;28;20995;-76
2022/11/09 01:12:30;;;;;;;48.33;26.77;;;;;;;-141.28;100.00;51578.78;5104507;28;20480;-79
2022/11/09 01:14:57;;;;;;;47.23;26.97;;;;;;;-141.28;100.00;51545.38;5113516;28;20203;-78
2022/11/09 01:17:26;;;;;;;43.00;24.90;;;;;;;-141.28;100.00;51513.97;5112938;28;20303;-77
2022/11/09 01:19:53;;;;;;;50.73;26.47;;;;;;;-141.28;100.00;50978.00;5112611;28;20645;-76
2022/11/09 01:22:20;;;;;;;43.67;25.87;;;;;;;-141.28;100.00;51476.66;5112785;28;20298;-80
2022/11/09 01:24:46;;;;;;;47.47;27.53;;;;;;;-141.28;100.00;51409.91;5112383;28;20483;-76
2022/11/09 01:27:13;;;;;;;52.03;27.97;;;;;;;-141.28;100.00;51411.88;5112932;28;20198;-79
2022/11/09 01:29:40;;;;;;;49.60;27.50;;;;;;;-141.28;100.00;51370.66;5111714;28;20459;-76
2022/11/09 01:32:07;;;;;;;53.83;27.77;;;;;;;-141.28;100.00;51370.66;5112342;28;20916;-76
2022/11/09 01:34:36;;;;;;;49.97;27.07;;;;;;;-141.28;100.00;51347.09;5112326;28;20444;-76
2022/11/09 01:37:03;;;;;;;60.03;31.13;;;;;;;-141.28;100.00;51288.19;5112404;28;20456;-76
2022/11/09 01:39:30;;;;;;;57.53;32.10;;;;;;;-141.28;100.00;51233.22;5112075;28;20452;-75
2022/11/09 01:41:57;;;;;;;54.37;30.00;;;;;;;-141.28;100.00;51227.31;5112486;28;20441;-75
2022/11/09 01:44:28;;;;;;;61.50;32.43;;;;;;;-141.28;100.00;51164.50;5112382;28;20501;-76
2022/11/09 01:46:58;;;;;;;51.43;30.80;;;;;;;-141.28;100.00;51087.94;5112398;28;20452;-79
2022/11/09 01:49:39;;;;;;;53.43;29.97;;;;;;;-141.28;100.00;51029.03;5111731;28;20449;-76
2022/11/09 01:52:12;;;;;;;56.23;29.63;;;;;;;-141.28;100.00;50820.94;5112076;28;20530;-79
2022/11/09 01:54:43;;;;;;;52.23;29.93;;;;;;;-141.28;100.00;50866.09;5109950;28;20491;-77
2022/11/09 01:57:15;;;;;;;50.33;28.60;;;;;;;-141.28;100.00;50852.34;5113779;28;20505;-75
2022/11/09 01:59:46;;;;;;;56.33;29.87;;;;;;;-141.28;100.00;50852.34;5112253;28;20505;-80
2022/11/09 02:02:13;;;;;;;52.23;29.70;;;;;;;-141.28;100.00;50852.34;5112257;28;20457;-76
2022/11/09 02:04:43;;;;;;;57.70;30.80;;;;;;;-141.28;100.00;50789.53;5111993;28;20480;-76
2022/11/09 02:07:12;;;;;;;55.87;30.10;;;;;;;-141.28;100.00;50738.50;5111960;28;20202;-78
2022/11/09 02:09:43;;;;;;;53.43;30.50;;;;;;;-141.28;100.00;50815.06;5112359;28;20230;-78
2022/11/09 02:12:11;;;;;;;57.17;32.63;;;;;;;-141.28;100.00;50750.28;5111872;28;20199;-78
2022/11/09 02:14:39;;;;;;;58.73;32.20;;;;;;;-141.28;100.00;50793.47;5115869;28;20457;-75
2022/11/09 02:17:07;;;;;;;50.97;31.33;;;;;;;-141.28;100.00;50781.69;5112670;28;20480;-79
2022/11/09 02:19:34;;;;;;;57.97;31.80;;;;;;;-141.28;100.00;50758.13;5111632;28;20445;-75
2022/11/09 02:22:03;;;;;;;56.97;32.00;;;;;;;-141.28;100.00;50760.09;5111764;28;20980;-76
2022/11/09 02:24:31;;;;;;;62.97;31.50;;;;;;;-141.28;100.00;50756.16;5111861;28;20860;-76
2022/11/09 02:26:58;;;;;;;56.23;32.73;;;;;;;-141.28;100.00;50734.56;5111935;28;20451;-77
2022/11/09 02:29:28;;;;;;;57.97;32.03;;;;;;;-141.28;100.00;50746.34;5103329;28;20519;-78
2022/11/09 02:32:00;;;;;;;64.40;32.10;;;;;;;-141.28;100.00;50644.28;5099687;28;20445;-77
2022/11/09 02:34:27;;;;;;;58.13;32.23;;;;;;;-141.28;100.00;50675.69;5116731;28;20634;-76
2022/11/09 02:36:54;;;;;;;53.93;32.50;;;;;;;-141.28;100.00;50640.34;5112487;28;20255;-76
2022/11/09 02:39:26;;;;;;;56.30;32.17;;;;;;;-141.28;100.00;50693.34;5112462;28;20214;-75
2022/11/09 02:41:55;;;;;;;57.00;31.07;;;;;;;-141.28;100.00;50632.50;5111890;28;20872;-76
2022/11/09 02:44:24;;;;;;;53.17;30.50;;;;;;;-141.28;100.00;50612.88;5112283;28;20264;-76
2022/11/09 02:46:51;;;;;;;53.27;29.83;;;;;;;-141.28;100.00;50597.16;5111859;28;20279;-77
2022/11/09 02:49:19;;;;;;;53.83;30.37;;;;;;;-141.28;100.00;50622.69;5111801;28;20194;-78
2022/11/09 02:51:45;;;;;;;58.97;30.37;;;;;;;-141.28;100.00;50610.91;5111772;28;20198;-78
2022/11/09 02:54:12;;;;;;;56.10;31.20;;;;;;;-141.28;100.00;50573.59;5111475;28;20203;-76
2022/11/09 02:56:40;;;;;;;54.30;29.17;;;;;;;-141.28;100.00;50597.16;5111569;28;20210;-79
2022/11/09 02:59:07;;;;;;;51.70;28.83;;;;;;;-141.28;100.00;50561.81;5111170;28;20206;-79
2022/11/09 03:01:34;;;;;;;72.53;30.23;;;;;;;-141.28;100.00;50565.75;5115944;28;20286;-79
2022/11/09 03:04:01;;;;;;;54.20;28.27;;;;;;;-141.28;100.00;50552.00;5114492;28;20195;-78
2022/11/09 03:06:34;;;;;;;55.37;28.47;;;;;;;-141.28;100.00;50546.13;5115580;28;20762;-77
2022/11/09 03:09:01;;;;;;;50.00;28.50;;;;;;;-141.28;100.00;50522.56;5115347;28;20640;-76
2022/11/09 03:11:28;;;;;;;49.27;29.70;;;;;;;-141.28;100.00;50534.34;5115447;28;20673;-75
2022/11/09 03:13:57;;;;;;;55.03;28.50;;;;;;;-141.28;100.00;50538.28;5115925;28;20221;-77
2022/11/09 03:16:24;;;;;;;51.70;29.63;;;;;;;-141.28;100.00;50546.13;5115293;28;20234;-75
2022/11/09 03:18:51;;;;;;;52.87;29.07;;;;;;;-141.28;100.00;50534.34;5115650;28;20597;-75
2022/11/09 03:21:18;;;;;;;62.73;30.70;;;;;;;-141.28;100.00;50557.91;5102882;28;20210;-76
2022/11/09 03:23:45;;;;;;;45.63;28.00;;;;;;;-141.28;100.00;50567.72;5114358;28;20207;-75
2022/11/09 03:26:12;;;;;;;48.60;27.83;;;;;;;-141.28;100.00;50538.28;5115079;28;20314;-76
2022/11/09 03:28:39;;;;;;;50.97;28.43;;;;;;;-141.28;100.00;50369.47;5115349;28;20207;-75
2022/11/09 03:31:07;;;;;;;54.67;29.00;;;;;;;-141.28;100.00;50499.00;5114990;28;20210;-76
2022/11/09 03:33:34;;;;;;;49.33;28.37;;;;;;;-141.28;100.00;50546.13;5118988;28;20199;-77
2022/11/09 03:36:01;;;;;;;56.20;29.57;;;;;;;-141.28;100.00;50550.06;5114862;28;20206;-75
2022/11/09 03:38:28;;;;;;;50.67;29.80;;;;;;;-141.28;100.00;50538.28;5115177;28;20203;-78
2022/11/09 03:40:55;;;;;;;59.63;29.97;;;;;;;-141.28;100.00;50552.00;5114657;28;20459;-78
2022/11/09 03:43:22;;;;;;;56.27;30.77;;;;;;;-141.28;100.00;50565.75;5114765;28;20207;-77
2022/11/09 03:45:49;;;;;;;52.17;30.50;;;;;;;-141.28;100.00;50571.63;5114305;28;20287;-75
2022/11/09 03:48:17;;;;;;;51.57;28.57;;;;;;;-141.28;100.00;50581.47;5114742;28;20199;-76
2022/11/09 03:50:44;;;;;;;54.37;30.47;;;;;;;-141.28;100.00;50597.16;5114203;28;20207;-79
2022/11/09 03:53:11;;;;;;;50.77;29.27;;;;;;;-141.28;100.00;50608.94;5114530;28;20199;-76
2022/11/09 03:55:39;;;;;;;52.53;30.20;;;;;;;-141.28;100.00;50624.63;5114190;28;20670;-79
2022/11/09 03:58:07;;;;;;;58.50;29.50;;;;;;;-141.28;100.00;50601.09;5114329;28;20456;-76
2022/11/09 04:00:37;;;;;;;54.53;29.10;;;;;;;-141.28;100.00;50565.75;5100829;28;20211;-78
2022/11/09 04:03:04;;;;;;;53.17;29.93;;;;;;;-141.28;100.00;50620.72;5112712;28;20226;-76
2022/11/09 04:05:32;;;;;;;58.23;29.73;;;;;;;-141.28;100.00;50628.56;5113726;28;20227;-79
2022/11/09 04:08:00;;;;;;;54.93;28.60;;;;;;;-141.28;100.00;50603.06;5114194;28;20206;-76
2022/11/09 04:10:27;;;;;;;52.63;28.33;;;;;;;-141.28;100.00;50601.09;5114269;28;20837;-76
2022/11/09 04:12:54;;;;;;;48.30;27.57;;;;;;;-141.28;100.00;50618.75;5113338;28;20261;-80
2022/11/09 04:15:22;;;;;;;57.47;29.30;;;;;;;-141.28;100.00;50630.53;5114052;28;20827;-77
2022/11/09 04:17:57;;;;;;;55.17;28.30;;;;;;;-141.28;100.00;50595.19;5114389;28;20533;-75
2022/11/09 04:20:23;;;;;;;57.13;28.93;;;;;;;-141.28;100.00;50644.28;5115939;28;20263;-76
2022/11/09 04:22:56;;;;;;;54.33;28.20;;;;;;;-141.28;100.00;50616.78;5115715;28;20947;-76
2022/11/09 04:25:24;;;;;;;50.30;27.03;;;;;;;-141.28;100.00;50612.88;5109232;28;20224;-76
2022/11/09 04:27:54;;;;;;;53.37;27.73;;;;;;;-141.28;100.00;50616.78;5106438;28;20639;-76
2022/11/09 04:30:22;;;;;;;60.17;30.43;;;;;;;-141.28;100.00;50640.34;5114183;28;20993;-76
2022/11/09 04:32:49;;;;;;;58.10;30.73;;;;;;;-141.28;100.00;50656.06;5114115;28;20199;-79
2022/11/09 04:35:17;;;;;;;51.70;28.33;;;;;;;-141.28;100.00;50644.28;5113555;28;20205;-76
2022/11/09 04:37:44;;;;;;;52.67;28.97;;;;;;;-141.28;100.00;50659.97;5113775;28;20497;-77
2022/11/09 04:40:13;;;;;;;53.40;26.87;;;;;;;-141.28;100.00;50636.41;5113693;28;20191;-76
2022/11/09 04:42:40;;;;;;;55.33;28.27;;;;;;;-141.28;100.00;50640.34;5113598;28;20206;-76
2022/11/09 04:45:08;;;;;;;56.87;29.90;;;;;;;-141.28;100.00;50434.25;5113467;28;20199;-76
2022/11/09 04:47:34;;;;;;;52.77;28.80;;;;;;;-141.28;100.00;50656.06;5113528;28;20205;-77
2022/11/09 04:50:01;;;;;;;58.70;28.13;;;;;;;-141.28;100.00;50650.16;5113759;28;20445;-76
2022/11/09 04:52:28;;;;;;;49.87;28.30;;;;;;;-141.28;100.00;50634.47;5117897;28;20447;-78
2022/11/09 04:54:55;;;;;;;55.67;28.83;;;;;;;-141.28;100.00;50683.53;5113462;28;20540;-77
2022/11/09 04:57:24;;;;;;;53.43;28.83;;;;;;;-141.28;100.00;50714.94;5113274;28;20206;-76
2022/11/09 04:59:51;;;;;;;57.13;29.20;;;;;;;-141.28;100.00;50697.28;5105577;28;20208;-78
2022/11/09 05:02:20;;;;;;;55.60;30.77;;;;;;;-141.28;100.00;50506.88;5108445;28;20696;-75
2022/11/09 05:04:47;;;;;;;60.33;33.07;;;;;;;-141.28;100.00;50781.69;5113607;28;20922;-76
2022/11/09 05:07:14;;;;;;;63.83;34.10;;;;;;;-141.28;100.00;50789.53;5099285;28;20488;-76
2022/11/09 05:09:42;;;;;;;62.87;35.03;;;;;;;-141.28;100.00;50781.69;5113309;28;20479;-75
2022/11/09 05:12:12;;;;;;;57.47;32.43;;;;;;;-141.28;100.00;50840.56;5113230;28;20480;-76
2022/11/09 05:14:40;;;;;;;65.73;36.87;;;;;;;-141.28;100.00;50858.25;5114090;28;20878;-78
2022/11/09 05:17:07;;;;;;;63.60;34.50;;;;;;;-141.28;100.00;50848.44;5113105;28;20888;-76
2022/11/09 05:19:34;;;;;;;57.73;31.00;;;;;;;-141.28;100.00;50883.75;5113902;28;20535;-77
2022/11/09 05:23:57;;;;;;;58.20;31.40;;;;;;;-141.28;100.00;50868.06;5112911;28;20448;-76
2022/11/09 05:24:50;;;;;;;57.50;29.57;;;;;;;-141.28;100.00;50771.88;5112664;28;20505;-76
2022/11/09 05:27:17;;;;;;;60.53;30.60;;;;;;;-141.28;100.00;50809.16;5112873;28;20646;-76
2022/11/09 05:29:45;;;;;;;57.00;29.27;;;;;;;-141.28;100.00;50856.28;5112811;28;20298;-76
2022/11/09 05:32:12;;;;;;;65.60;30.53;;;;;;;-141.28;100.00;50846.47;5113112;28;20199;-76
2022/11/09 05:34:39;;;;;;;74.50;32.53;;;;;;;-141.28;100.00;50913.22;5113223;28;20440;-76
2022/11/09 05:37:05;;;;;;;71.53;31.20;;;;;;;-141.28;100.00;50891.63;5113634;28;20449;-76
2022/11/09 05:39:33;;;;;;;59.00;30.00;;;;;;;-141.28;100.00;50903.41;5105700;28;20272;-75
2022/11/09 05:42:00;;;;;;;58.40;30.07;;;;;;;-141.28;100.00;50907.31;5108273;28;20502;-75
2022/11/09 05:44:27;;;;;;;55.23;28.60;;;;;;;-141.28;100.00;50954.44;5115228;28;20456;-74
2022/11/09 05:46:55;;;;;;;62.87;31.63;;;;;;;-141.28;100.00;50966.22;5116404;28;20598;-77
2022/11/09 05:49:22;;;;;;;63.97;30.20;;;;;;;-141.28;100.00;50938.72;5112298;28;20433;-75
2022/11/09 05:51:49;;;;;;;63.93;30.50;;;;;;;-141.28;100.00;50954.44;5113139;28;20441;-78
2022/11/09 05:54:16;;;;;;;58.43;30.40;;;;;;;-141.28;100.00;50983.88;5113494;28;20428;-78
2022/11/09 05:56:43;;;;;;;74.63;32.07;;;;;;;-141.28;100.00;51009.41;5113419;28;20452;-79
2022/11/09 05:59:10;;;;;;;98.70;33.90;;;;;;;-141.28;100.00;50985.84;5115154;28;20957;-77
2022/11/09 06:01:37;;;;;;;83.20;33.73;;;;;;;-141.28;100.00;51048.66;5111792;28;20457;-77
2022/11/09 06:04:05;;;;;;;77.37;32.20;;;;;;;-141.28;100.00;51097.75;5110887;28;20951;-77
2022/11/09 06:06:32;;;;;;;65.37;33.03;;;;;;;-141.28;100.00;51193.94;5112792;28;20484;-76
2022/11/09 06:09:00;;;;;;;69.10;33.27;;;;;;;-141.28;100.00;51498.28;5114724;28;20498;-76
2022/11/09 06:11:28;;;;;;;74.70;34.67;;;;;;;-141.28;100.00;51600.38;5114625;28;20456;-78
2022/11/09 06:13:57;;;;;;;56.47;30.50;;;;;;;-141.28;100.00;51680.88;5111622;28;20213;-78
2022/11/09 06:16:25;;;;;;;60.83;33.87;;;;;;;-141.28;100.00;51720.16;5111789;28;20266;-76
2022/11/09 06:18:52;;;;;;;66.90;34.20;;;;;;;-141.28;100.00;51415.81;5112173;28;20207;-76
2022/11/09 06:21:21;;;;;;;66.10;30.03;;;;;;;-141.28;100.00;51694.63;5111882;28;20199;-76
2022/11/09 06:23:48;;;;;;;54.73;29.63;;;;;;;-141.28;100.00;51515.94;5112163;28;20611;-75
2022/11/09 06:26:15;;;;;;;51.97;28.33;;;;;;;-141.28;100.00;51680.88;5112578;28;20250;-75
2022/11/09 06:28:42;;;;;;;56.03;32.17;;;;;;;-141.28;100.00;51610.19;5112102;28;20683;-75
2022/11/09 06:31:13;;;;;;;69.33;39.67;;;;;;;-141.28;100.00;51527.72;5111682;28;20344;-76
2022/11/09 06:33:40;;;;;;;62.83;35.27;;;;;;;-141.28;100.00;51229.28;5111778;28;20199;-78
2022/11/09 06:36:09;;;;;;;51.73;29.97;;;;;;;-141.28;100.00;51292.13;5100962;28;20199;-75
2022/11/09 06:38:37;;;;;;;49.67;27.93;;;;;;;-141.28;100.00;51119.34;5109215;28;20226;-75
2022/11/09 06:41:04;;;;;;;50.00;26.83;;;;;;;-141.28;100.00;51005.47;5111567;28;20206;-76
2022/11/09 06:43:31;;;;;;;48.60;27.73;;;;;;;-141.28;100.00;50905.34;5111004;28;20653;-78
2022/11/09 06:45:59;;;;;;;48.17;28.17;;;;;;;-141.28;100.00;50789.53;5112230;28;20199;-76
2022/11/09 06:48:26;;;;;;;50.40;28.83;;;;;;;-141.28;100.00;50714.94;5111675;28;20202;-78
2022/11/09 06:50:53;;;;;;;59.67;28.63;;;;;;;-141.28;100.00;50628.56;5117233;28;20271;-75
2022/11/09 06:53:20;;;;;;;45.30;27.00;;;;;;;-141.28;100.00;50589.31;5114823;28;20211;-76
2022/11/09 06:55:49;;;;;;;50.33;26.37;;;;;;;-141.28;100.00;50628.56;5111548;28;20198;-76
2022/11/09 06:58:16;;;;;;;43.30;25.57;;;;;;;-141.28;100.00;50557.91;5111481;28;20207;-76
2022/11/09 07:00:43;;;;;;;50.33;27.97;;;;;;;-141.28;100.00;50500.97;5111599;28;20692;-77
2022/11/09 07:03:14;;;;;;;50.47;27.17;;;;;;;-141.28;100.00;50491.16;5110799;28;20199;-77
2022/11/09 07:05:41;;;;;;;46.87;26.57;;;;;;;-141.28;100.00;50475.47;5111368;28;20199;-76
2022/11/09 07:08:08;;;;;;;54.47;28.07;;;;;;;-141.28;100.00;50467.59;5111445;28;20235;-78
2022/11/09 07:10:35;;;;;;;53.63;26.13;;;;;;;-141.28;100.00;50479.38;5110990;28;20273;-76
2022/11/09 07:13:04;;;;;;;49.23;26.90;;;;;;;-141.28;100.00;50479.38;5100825;28;20580;-79
2022/11/09 07:15:31;;;;;;;58.27;27.93;;;;;;;-141.28;100.00;50432.28;5109832;28;20203;-78
2022/11/09 07:17:59;;;;;;;48.53;25.90;;;;;;;-141.28;100.00;50461.72;5111662;28;20303;-78
2022/11/09 07:20:26;;;;;;;43.30;24.40;;;;;;;-141.28;100.00;50444.06;5110945;28;20677;-77
2022/11/09 07:22:53;;;;;;;38.07;24.67;;;;;;;-141.28;100.00;50469.56;5111064;28;20203;-77
2022/11/09 07:25:20;;;;;;;37.80;25.20;;;;;;;-141.28;100.00;50467.59;5110532;28;20200;-77
2022/11/09 07:27:47;;;;;;;46.90;26.47;;;;;;;-141.28;100.00;50502.94;5113593;28;20234;-76
2022/11/09 07:30:16;;;;;;;48.90;25.10;;;;;;;-141.28;100.00;50530.41;5112001;28;20268;-79
2022/11/09 07:32:43;;;;;;;48.47;26.17;;;;;;;-141.28;100.00;50495.09;5111077;28;20203;-76
2022/11/09 07:35:10;;;;;;;45.07;26.73;;;;;;;-141.28;100.00;50518.66;5111282;28;20659;-77
2022/11/09 07:37:37;;;;;;;44.50;24.87;;;;;;;-141.28;100.00;50538.28;5111133;28;20312;-77
2022/11/09 07:40:04;;;;;;;45.87;26.07;;;;;;;-141.28;100.00;50514.72;5111100;28;20199;-79
2022/11/09 07:42:32;;;;;;;44.07;27.10;;;;;;;-141.28;100.00;50536.31;5110677;28;20727;-78
2022/11/09 07:44:58;;;;;;;43.83;24.53;;;;;;;-141.28;100.00;50538.28;5098409;28;20207;-75
2022/11/09 07:47:27;;;;;;;42.17;25.77;;;;;;;-141.28;100.00;50542.19;5112491;28;20226;-76
2022/11/09 07:49:54;;;;;;;43.63;26.77;;;;;;;-141.28;100.00;50536.31;5114759;28;20194;-79
2022/11/09 07:52:20;;;;;;;40.07;24.77;;;;;;;-141.28;100.00;50506.88;5114237;28;20203;-76
2022/11/09 07:54:48;;;;;;;41.77;24.50;;;;;;;-141.28;100.00;50475.47;5114781;28;20632;-79
2022/11/09 07:57:14;;;;;;;43.63;26.10;;;;;;;-141.28;100.00;50495.09;5114359;28;20210;-75
2022/11/09 07:59:41;;;;;;;45.10;25.50;;;;;;;-141.28;100.00;50487.25;5114653;28;20195;-75
2022/11/09 08:02:09;;;;;;;46.37;24.87;;;;;;;-141.28;100.00;50440.13;5113039;28;20222;-77
2022/11/09 08:04:37;;;;;;;42.90;26.77;;;;;;;-141.28;100.00;50404.81;5114814;28;20609;-75
2022/11/09 08:07:03;;;;;;;37.73;26.27;;;;;;;-141.28;100.00;50467.59;5114129;28;20227;-76
2022/11/09 08:09:30;;;;;;;47.87;27.40;;;;;;;-141.28;100.00;50593.22;5114607;28;20305;-75
2022/11/09 08:11:57;;;;;;;51.17;28.90;;;;;;;-141.28;100.00;50626.59;5106136;28;20203;-75
2022/11/09 08:14:24;;;;;;;46.87;28.20;;;;;;;-141.28;100.00;50597.16;5113018;28;20395;-75
2022/11/09 08:16:52;;;;;;;46.87;29.43;;;;;;;-141.28;100.00;50581.47;5119269;28;20258;-75
2022/11/09 08:19:18;;;;;;;44.07;27.27;;;;;;;-141.28;100.00;50434.25;5122104;28;20234;-75
2022/11/09 08:21:47;;;;;;;44.20;26.93;;;;;;;-141.28;100.00;50279.19;5121931;28;20271;-75
2022/11/09 08:24:15;;;;;;;49.47;28.13;;;;;;;-141.28;100.00;50184.97;5117303;28;20191;-75
2022/11/09 08:26:41;;;;;;;49.13;29.00;;;;;;;-141.28;100.00;50112.34;5112269;28;20238;-76
2022/11/09 08:29:09;;;;;;;45.50;26.80;;;;;;;-141.28;100.00;50024.03;5114054;28;20222;-76
2022/11/09 08:31:36;;;;;;;51.23;29.07;;;;;;;-141.28;100.00;49992.63;5113923;28;20272;-77
2022/11/09 08:34:03;;;;;;;42.33;27.53;;;;;;;-141.28;100.00;49959.25;5113543;28;20264;-79
2022/11/09 08:36:31;;;;;;;42.30;28.03;;;;;;;-141.28;100.00;49910.19;5113795;28;20319;-79
2022/11/09 08:38:59;;;;;;;48.23;28.10;;;;;;;-141.28;100.00;49898.44;5101191;28;20195;-77
2022/11/09 08:41:27;;;;;;;48.70;29.60;;;;;;;-141.28;100.00;49872.91;5113511;28;20209;-76
2022/11/09 08:43:53;;;;;;;46.87;30.23;;;;;;;-141.28;100.00;49774.78;5113626;28;20202;-76
2022/11/09 08:46:21;;;;;;;46.33;29.60;;;;;;;-141.28;100.00;49794.41;5116244;28;20272;-78
2022/11/09 08:48:47;;;;;;;48.47;27.87;;;;;;;-141.28;100.00;49804.22;5113884;28;20202;-78
2022/11/09 08:51:16;;;;;;;51.00;29.23;;;;;;;-141.28;100.00;49808.16;5113515;28;20583;-77
2022/11/09 08:53:43;;;;;;;44.77;29.30;;;;;;;-141.28;100.00;49829.75;5113716;28;20198;-77
2022/11/09 08:56:11;;;;;;;48.53;28.33;;;;;;;-141.28;100.00;49808.16;5117382;28;20215;-77
2022/11/09 08:58:39;;;;;;;46.47;28.77;;;;;;;-141.28;100.00;49843.47;5107215;28;20200;-79
2022/11/09 09:01:07;;;;;;;53.23;29.10;;;;;;;-141.28;100.00;49833.66;5109280;28;20202;-75
2022/11/09 09:03:34;;;;;;;43.80;27.77;;;;;;;-141.28;100.00;49851.31;5112204;28;20203;-80
2022/11/09 09:06:03;;;;;;;46.00;27.53;;;;;;;-141.28;100.00;49851.31;5113054;28;20278;-75
2022/11/09 09:08:30;;;;;;;46.60;27.43;;;;;;;-141.28;100.00;49855.25;5113028;28;20231;-75
2022/11/09 09:10:57;;;;;;;37.50;25.17;;;;;;;-141.28;100.00;49808.16;5099927;28;20291;-75
2022/11/09 09:13:25;;;;;;;37.87;25.93;;;;;;;-141.28;100.00;49861.13;5112924;28;20279;-77
2022/11/09 09:15:52;;;;;;;44.37;26.20;;;;;;;-141.28;100.00;49821.88;5122615;28;20203;-75
2022/11/09 09:18:19;;;;;;;42.23;26.53;;;;;;;-141.28;100.00;49884.69;5114422;28;20293;-76
2022/11/09 09:20:46;;;;;;;40.37;25.70;;;;;;;-141.28;100.00;49898.44;5105000;28;20204;-76
2022/11/09 09:23:14;;;;;;;37.37;24.97;;;;;;;-141.28;100.00;49910.19;5107415;28;20203;-77
2022/11/09 09:25:41;;;;;;;42.07;25.57;;;;;;;-141.28;100.00;49931.78;5112959;28;20213;-80
2022/11/09 09:28:08;;;;;;;39.07;22.93;;;;;;;-141.28;100.00;49953.38;5112242;28;20607;-76
2022/11/09 09:30:36;;;;;;;36.23;24.07;;;;;;;-141.28;100.00;49986.75;5112495;28;20199;-77
2022/11/09 09:33:03;;;;;;;37.43;23.23;;;;;;;-141.28;100.00;50067.22;5112568;28;20199;-79
2022/11/09 09:35:32;;;;;;;40.23;24.07;;;;;;;-141.28;100.00;50220.28;5103503;28;20758;-76
2022/11/09 09:38:00;;;;;;;34.83;23.30;;;;;;;-141.28;100.00;50340.03;5108347;28;20214;-75
2022/11/09 09:40:34;;;;;;;32.30;22.43;;;;;;;-141.28;100.00;50540.22;5112242;28;20618;-78
2022/11/09 09:43:02;;;;;;;31.43;21.67;;;;;;;-141.28;100.00;50650.16;5112271;28;20202;-76
2022/11/09 09:45:32;;;;;;;36.60;22.57;;;;;;;-141.28;100.00;50750.28;5112339;28;20205;-77
2022/11/09 09:48:11;;;;;;;33.23;21.90;;;;;;;-141.28;100.00;50848.44;5112382;28;20346;-77
2022/11/09 09:50:45;;;;;;;33.67;22.30;;;;;;;-141.28;100.00;51038.84;5112178;28;20278;-77
2022/11/09 09:53:17;;;;;;;36.37;22.60;;;;;;;-141.28;100.00;51272.47;5111795;28;20298;-79
2022/11/09 09:55:50;;;;;;;35.03;22.27;;;;;;;-141.28;100.00;51374.56;5111808;28;20255;-79
2022/11/09 09:58:24;;;;;;;33.70;22.23;;;;;;;-141.28;100.00;51455.06;5111638;28;20685;-76
2022/11/09 10:00:55;;;;;;;34.23;21.87;;;;;;;-141.28;100.00;51586.63;5111636;28;20203;-79
2022/11/09 10:03:23;;;;;;;35.27;20.67;;;;;;;-141.28;100.00;51692.66;5111146;28;20291;-75
2022/11/09 10:05:58;;;;;;;41.27;21.63;;;;;;;-141.28;100.00;51753.53;5115923;28;20275;-76
2022/11/09 10:08:36;;;;;;;31.27;20.57;;;;;;;-141.28;100.00;51908.66;5112582;28;20226;-76
2022/11/09 10:11:15;;;;;;;29.40;19.53;;;;;;;-141.28;100.00;51873.31;5111538;28;20589;-76
2022/11/09 10:14:11;;;;;;;31.00;18.47;;;;;;;-141.28;100.00;51930.25;5115213;28;20199;-80
2022/11/09 10:16:46;;;;;;;28.90;18.97;;;;;;;-141.28;100.00;51890.97;5105936;28;20608;-81
2022/11/09 10:19:29;;;;;;;28.30;21.00;;;;;;;-141.28;100.00;51792.81;5113252;28;20215;-76
2022/11/09 10:22:02;;;;;;;32.97;19.57;;;;;;;-141.28;100.00;51704.44;5112133;28;20291;-76
2022/11/09 10:24:40;;;;;;;28.50;20.77;;;;;;;-141.28;100.00;51834.03;5098203;28;20218;-79
2022/11/09 10:27:22;;;;;;;39.00;19.53;;;;;;;-141.28;100.00;51830.09;5112041;28;20305;-77
2022/11/09 10:29:50;;;;;;;28.43;18.17;;;;;;;-141.28;100.00;51849.75;5111866;28;20194;-79
2022/11/09 10:32:19;;;;;;;27.63;19.57;;;;;;;-141.28;100.00;51645.53;5111675;28;20211;-76
2022/11/09 10:34:54;;;;;;;23.17;17.97;;;;;;;-141.28;100.00;51382.44;5111535;28;20206;-80
2022/11/09 10:37:28;;;;;;;22.67;16.87;;;;;;;-141.28;100.00;51256.78;5112167;28;20206;-80
2022/11/09 10:40:03;;;;;;;26.63;17.97;;;;;;;-141.28;100.00;51044.75;5112841;28;20195;-76
2022/11/09 10:42:30;;;;;;;24.50;17.80;;;;;;;-141.28;100.00;50909.28;5112086;28;20212;-78
2022/11/09 10:44:58;;;;;;;26.47;16.40;;;;;;;-141.28;100.00;50887.69;5111827;28;20316;-77
2022/11/09 10:47:28;;;;;;;24.83;16.53;;;;;;;-141.28;100.00;50881.78;5111166;28;20227;-76
2022/11/09 10:50:28;;;;;;;24.73;16.37;;;;;;;-141.28;100.00;50999.59;5111910;28;20195;-77
2022/11/09 10:53:09;;;;;;;20.63;15.60;;;;;;;-141.28;100.00;50909.28;5111620;28;20203;-77
2022/11/09 10:55:37;;;;;;;24.80;17.40;;;;;;;-141.28;100.00;50840.56;5111127;28;20234;-76
2022/11/09 10:58:22;;;;;;;23.10;15.63;;;;;;;-141.28;100.00;50891.63;5111522;28;20210;-77
2022/11/09 11:00:59;;;;;;;21.23;14.97;;;;;;;-141.28;100.00;50903.41;5111613;28;20203;-77